Time;durP1;ratioP1;P1;durP2;ratioP2;P2;SDS_P1;SDS_P2;PMS_P1;PMS_P2;Temp;Humidity;BMP_temperature;BMP_pressure;BME280_temperature;BME280_humidity;BME280_pressure;Samples;Min_cycle;Max_cycle;Signal;HPM_P1;HPM_P2
2024/02/07 00:01:28;;;;;;;28.10;11.63;;;;;;;10.20;100.00;100384.91;5097362;28;20028;-71
2024/02/07 00:03:54;;;;;;;32.55;12.25;;;;;;;10.19;100.00;100397.94;5077864;28;20101;-71
2024/02/07 00:06:19;;;;;;;35.38;13.15;;;;;;;10.20;100.00;100382.94;5053978;28;20024;-71
2024/02/07 00:08:45;;;;;;;29.80;10.95;;;;;;;10.20;100.00;100388.50;5078955;28;20032;-71
2024/02/07 00:11:11;;;;;;;27.05;11.32;;;;;;;10.20;100.00;100373.81;5073239;28;20147;-71
2024/02/07 00:13:37;;;;;;;27.50;11.13;;;;;;;10.21;100.00;100373.47;5078403;28;20047;-71
2024/02/07 00:16:02;;;;;;;33.95;11.00;;;;;;;10.21;100.00;100376.25;5060418;28;20031;-71
2024/02/07 00:18:28;;;;;;;32.85;11.73;;;;;;;10.21;100.00;100367.94;5070131;28;20036;-71
2024/02/07 00:20:54;;;;;;;21.83;11.75;;;;;;;10.22;100.00;100368.75;5056567;28;20123;-71
2024/02/07 00:23:19;;;;;;;25.30;11.40;;;;;;;10.24;100.00;100358.19;5078401;28;20510;-71
2024/02/07 00:25:45;;;;;;;30.60;12.40;;;;;;;10.24;100.00;100366.53;5071741;28;20024;-71
2024/02/07 00:28:11;;;;;;;30.98;11.07;;;;;;;10.21;100.00;100370.72;5061930;28;20028;-71
2024/02/07 00:30:37;;;;;;;27.17;11.75;;;;;;;10.21;100.00;100370.72;5067773;28;20028;-71
2024/02/07 00:33:04;;;;;;;25.42;11.40;;;;;;;10.24;100.00;100377.63;5052971;28;20032;-71
2024/02/07 00:35:30;;;;;;;28.02;12.23;;;;;;;10.24;100.00;100358.19;5064777;28;20115;-71
2024/02/07 00:37:55;;;;;;;24.83;11.38;;;;;;;10.23;100.00;100359.31;5059076;28;20035;-71
2024/02/07 00:40:21;;;;;;;28.88;11.73;;;;;;;10.23;100.00;100360.16;5084228;28;20028;-71
2024/02/07 00:42:49;;;;;;;33.13;12.27;;;;;;;10.26;100.00;100358.72;5061347;28;20403;-71
2024/02/07 00:45:15;;;;;;;23.13;10.88;;;;;;;10.26;100.00;100355.97;5027858;28;20054;-71
2024/02/07 00:47:40;;;;;;;27.27;11.93;;;;;;;10.27;100.00;100350.13;5059689;28;20167;-71
2024/02/07 00:50:06;;;;;;;27.08;11.35;;;;;;;10.26;100.00;100344.84;5018488;28;20397;-71
2024/02/07 00:52:32;;;;;;;28.50;11.43;;;;;;;10.27;100.00;100338.19;5021464;28;20052;-71
2024/02/07 00:54:57;;;;;;;27.63;11.32;;;;;;;10.26;100.00;100331.81;5054859;28;20024;-71
2024/02/07 00:57:23;;;;;;;27.20;11.80;;;;;;;10.25;100.00;100319.06;5055834;28;20033;-71
2024/02/07 00:59:48;;;;;;;29.17;11.45;;;;;;;10.25;100.00;100329.31;5054015;28;20075;-71
2024/02/07 01:02:14;;;;;;;32.53;11.85;;;;;;;10.25;100.00;100319.06;5037968;28;20033;-71
2024/02/07 01:04:40;;;;;;;34.20;11.63;;;;;;;10.26;100.00;100312.38;5034789;28;20029;-71
2024/02/07 01:07:07;;;;;;;34.65;12.10;;;;;;;10.24;100.00;100306.28;5036425;28;20036;-71
2024/02/07 01:09:34;;;;;;;32.17;11.77;;;;;;;10.27;100.00;100314.03;5037743;28;20017;-71
2024/02/07 01:12:01;;;;;;;32.42;11.90;;;;;;;10.27;100.00;100307.66;5043245;28;20056;-71
2024/02/07 01:14:27;;;;;;;29.70;10.95;;;;;;;10.26;100.00;100308.78;5043008;28;20056;-71
2024/02/07 01:16:52;;;;;;;28.63;11.75;;;;;;;10.27;100.00;100307.66;5043214;28;20035;-71
2024/02/07 01:19:18;;;;;;;28.70;11.55;;;;;;;10.29;100.00;100308.22;5018533;28;20038;-71
2024/02/07 01:21:43;;;;;;;37.67;12.60;;;;;;;10.32;100.00;100301.25;5042745;28;20051;-71
2024/02/07 01:24:08;;;;;;;28.38;11.63;;;;;;;10.32;100.00;100301.25;5054113;28;20029;-71
2024/02/07 01:26:35;;;;;;;28.35;11.88;;;;;;;10.29;100.00;100291.56;5010217;28;20032;-71
2024/02/07 01:29:00;;;;;;;25.80;10.93;;;;;;;10.28;100.00;100290.72;5043056;28;20029;-71
2024/02/07 01:31:26;;;;;;;30.67;12.35;;;;;;;10.29;100.00;100294.34;5044020;28;20027;-71
2024/02/07 01:33:54;;;;;;;32.67;11.00;;;;;;;10.30;100.00;100293.19;5031455;28;20509;-71
2024/02/07 01:36:21;;;;;;;27.77;10.93;;;;;;;10.31;100.00;100291.25;5016653;28;20078;-71
2024/02/07 01:38:46;;;;;;;32.35;11.98;;;;;;;10.32;100.00;100279.84;5046079;28;20474;-71
2024/02/07 01:41:12;;;;;;;30.13;10.80;;;;;;;10.33;100.00;100281.50;5053837;28;20099;-71
2024/02/07 01:43:37;;;;;;;27.02;11.25;;;;;;;10.33;100.00;100275.94;5008777;28;20033;-71
2024/02/07 01:46:03;;;;;;;33.35;11.50;;;;;;;10.33;100.00;100280.69;5046856;28;20029;-71
2024/02/07 01:48:29;;;;;;;33.90;11.60;;;;;;;10.34;100.00;100274.03;5068200;28;20649;-71
2024/02/07 01:50:54;;;;;;;24.90;11.32;;;;;;;10.34;100.00;100272.06;5060548;28;20024;-71
2024/02/07 01:53:20;;;;;;;28.95;11.63;;;;;;;10.34;100.00;100265.69;5075070;28;20492;-71
2024/02/07 01:55:47;;;;;;;34.67;11.90;;;;;;;10.35;100.00;100262.59;5049483;28;20028;-71
2024/02/07 01:58:13;;;;;;;30.88;11.48;;;;;;;10.37;100.00;100260.34;5046190;28;20036;-71
2024/02/07 02:00:39;;;;;;;33.50;11.35;;;;;;;10.38;100.00;100261.19;5068590;28;20063;-71
2024/02/07 02:03:04;;;;;;;35.63;10.93;;;;;;;10.37;100.00;100263.13;5075060;28;20032;-71
2024/02/07 02:05:30;;;;;;;34.30;10.93;;;;;;;10.37;100.00;100259.53;5068226;28;20028;-71
2024/02/07 02:07:57;;;;;;;33.28;11.68;;;;;;;10.38;100.00;100262.00;5083822;28;20472;-71
2024/02/07 02:10:22;;;;;;;38.35;11.88;;;;;;;10.38;100.00;100250.91;5058618;28;20095;-71
2024/02/07 02:12:48;;;;;;;27.83;11.35;;;;;;;10.38;100.00;100239.78;5048515;28;20039;-71
2024/02/07 02:15:13;;;;;;;30.33;10.80;;;;;;;10.39;100.00;100246.16;5061533;28;20024;-71
2024/02/07 02:17:39;;;;;;;27.48;10.57;;;;;;;10.39;100.00;100247.00;5061115;28;20032;-71
2024/02/07 02:20:05;;;;;;;28.65;11.45;;;;;;;10.39;100.00;100247.00;5086264;28;20032;-71
2024/02/07 02:22:39;;;;;;;36.55;10.82;;;;;;;10.40;100.00;100242.28;5051529;28;20040;-71
2024/02/07 02:25:26;;;;;;;26.25;10.50;;;;;;;10.40;100.00;100237.56;5078925;28;20036;-71
2024/02/07 02:28:21;;;;;;;26.63;10.70;;;;;;;10.41;100.00;100236.41;5082906;28;20028;-71
2024/02/07 02:30:50;;;;;;;35.70;10.50;;;;;;;10.40;100.00;100231.19;5094195;28;20240;-71
2024/02/07 02:33:18;;;;;;;21.90;10.38;;;;;;;10.40;100.00;100232.00;5072352;28;20052;-71
2024/02/07 02:35:44;;;;;;;29.30;12.13;;;;;;;10.38;100.00;100227.88;5066270;28;20036;-71
2024/02/07 02:38:09;;;;;;;31.58;11.18;;;;;;;10.38;100.00;100225.91;5074744;28;20032;-71
2024/02/07 02:40:34;;;;;;;36.63;11.30;;;;;;;10.38;100.00;100223.13;5080540;28;20028;-71
2024/02/07 02:43:00;;;;;;;36.90;10.85;;;;;;;10.40;100.00;100232.00;5069739;28;20021;-71
2024/02/07 02:45:25;;;;;;;29.98;10.70;;;;;;;10.39;100.00;100219.25;5056964;28;20099;-71
2024/02/07 02:47:51;;;;;;;27.13;10.48;;;;;;;10.38;100.00;100223.13;5063551;28;20040;-71
2024/02/07 02:50:17;;;;;;;34.63;10.73;;;;;;;10.37;100.00;100215.94;5067706;28;20024;-71
2024/02/07 02:52:42;;;;;;;29.70;10.45;;;;;;;10.38;100.00;100214.81;5056564;28;20034;-71
2024/02/07 02:55:11;;;;;;;36.88;11.43;;;;;;;10.37;100.00;100207.63;5058012;28;20074;-71
2024/02/07 02:57:38;;;;;;;30.30;11.65;;;;;;;10.39;100.00;100204.53;5024000;28;20060;-71
2024/02/07 03:00:07;;;;;;;25.50;10.20;;;;;;;10.36;100.00;100202.34;5078801;28;20482;-71
2024/02/07 03:02:33;;;;;;;33.25;11.38;;;;;;;10.37;100.00;100195.69;5098271;28;20035;-71
2024/02/07 03:05:00;;;;;;;33.45;11.68;;;;;;;10.36;100.00;100194.84;5067965;28;20103;-71
2024/02/07 03:07:54;;;;;;;34.55;11.38;;;;;;;10.35;100.00;100184.88;5030595;28;20480;-71
2024/02/07 03:10:23;;;;;;;32.22;10.50;;;;;;;10.36;100.00;100189.28;5071249;28;20024;-71
2024/02/07 03:12:49;;;;;;;31.15;11.13;;;;;;;10.36;100.00;100191.25;5050583;28;20028;-71
2024/02/07 03:15:15;;;;;;;31.60;10.63;;;;;;;10.36;100.00;100180.97;5060968;28;20039;-71
2024/02/07 03:17:42;;;;;;;32.65;10.90;;;;;;;10.34;100.00;100177.69;5066696;28;20032;-71
2024/02/07 03:20:11;;;;;;;28.63;10.95;;;;;;;10.34;100.00;100165.75;5077449;28;20476;-71
2024/02/07 03:22:37;;;;;;;27.55;11.07;;;;;;;10.34;100.00;100163.00;5076225;28;20039;-71
2024/02/07 03:25:03;;;;;;;27.15;10.30;;;;;;;10.32;100.00;100163.28;5086024;28;20024;-71
2024/02/07 03:27:29;;;;;;;26.15;10.20;;;;;;;10.34;100.00;100149.94;5049736;28;20127;-71
2024/02/07 03:29:56;;;;;;;24.77;10.35;;;;;;;10.32;100.00;100152.16;5061977;28;20040;-71
2024/02/07 03:32:22;;;;;;;22.75;10.40;;;;;;;10.32;100.00;100149.41;5088924;28;20055;-71
2024/02/07 03:34:48;;;;;;;25.15;10.30;;;;;;;10.32;100.00;100141.06;5087243;28;20032;-71
2024/02/07 03:37:13;;;;;;;24.17;10.25;;;;;;;10.32;100.00;100141.06;5072560;28;20036;-71
2024/02/07 03:39:40;;;;;;;31.92;10.85;;;;;;;10.32;100.00;100124.41;5062485;28;20027;-71
2024/02/07 03:42:07;;;;;;;26.02;10.27;;;;;;;10.30;100.00;100121.09;5067829;28;20056;-71
2024/02/07 03:44:33;;;;;;;30.23;10.40;;;;;;;10.32;100.00;100120.81;5092585;28;20028;-71
2024/02/07 03:46:58;;;;;;;30.90;10.38;;;;;;;10.32;100.00;100124.41;5050613;28;20044;-71
2024/02/07 03:49:24;;;;;;;25.52;11.57;;;;;;;10.29;100.00;100120.28;5085023;28;20039;-71
2024/02/07 03:51:52;;;;;;;23.63;10.07;;;;;;;10.28;100.00;100112.28;5061486;28;20028;-71
2024/02/07 03:54:18;;;;;;;30.13;11.25;;;;;;;10.29;100.00;100119.47;5067307;28;20035;-71
2024/02/07 03:56:44;;;;;;;31.15;10.45;;;;;;;10.27;100.00;100122.53;5059565;28;20028;-71
2024/02/07 03:59:10;;;;;;;30.90;10.55;;;;;;;10.29;100.00;100119.47;5070034;28;20515;-71
2024/02/07 04:01:36;;;;;;;23.63;10.80;;;;;;;10.26;100.00;100115.31;5062737;28;20241;-71
2024/02/07 04:04:05;;;;;;;25.52;10.65;;;;;;;10.27;100.00;100105.06;5056646;28;20040;-71
2024/02/07 04:06:31;;;;;;;27.42;10.80;;;;;;;10.28;100.00;100115.06;5062950;28;20024;-71
2024/02/07 04:08:57;;;;;;;31.40;11.45;;;;;;;10.27;100.00;100096.72;5064297;28;20032;-71
2024/02/07 05:16:29;;;;;;;27.08;10.15;;;;;;;10.12;100.00;99997.88;5069469;28;20036;-71
2024/02/07 05:18:55;;;;;;;27.42;10.88;;;;;;;10.09;100.00;100004.03;5054352;28;20058;-71
2024/02/07 05:21:20;;;;;;;22.77;10.68;;;;;;;10.11;100.00;100000.94;5080516;28;20032;-71
2024/02/07 05:23:46;;;;;;;28.02;11.10;;;;;;;10.11;100.00;99999.00;5062495;28;20026;-71
2024/02/07 05:26:12;;;;;;;33.20;11.23;;;;;;;10.11;100.00;99992.63;5070507;28;20028;-71
2024/02/07 05:28:37;;;;;;;25.70;10.73;;;;;;;10.10;100.00;99986.25;5077259;28;20039;-71
2024/02/07 05:31:03;;;;;;;31.25;11.77;;;;;;;10.12;100.00;99978.47;5075307;28;20020;-71
2024/02/07 05:33:28;;;;;;;36.25;11.98;;;;;;;10.12;100.00;99970.13;5054599;28;20081;-71
2024/02/07 05:35:54;;;;;;;27.67;11.25;;;;;;;10.13;100.00;99976.50;5063577;28;20481;-71
2024/02/07 05:38:19;;;;;;;32.40;12.45;;;;;;;10.12;100.00;99977.66;5043438;28;20024;-71
2024/02/07 05:40:45;;;;;;;31.17;11.52;;;;;;;10.13;100.00;99979.28;5063611;28;20532;-71
2024/02/07 05:43:11;;;;;;;33.53;12.35;;;;;;;10.13;100.00;99968.19;5068821;28;20053;-71
2024/02/07 05:45:36;;;;;;;32.22;11.70;;;;;;;10.16;100.00;99964.78;5062571;28;20615;-71
2024/02/07 05:48:02;;;;;;;31.67;13.38;;;;;;;10.15;100.00;99960.38;5040649;28;20108;-71
2024/02/07 05:50:27;;;;;;;29.92;11.95;;;;;;;10.14;100.00;99950.41;5035805;28;20033;-71
2024/02/07 05:52:53;;;;;;;32.85;12.77;;;;;;;10.17;100.00;99955.34;5045678;28;20036;-71
2024/02/07 05:55:19;;;;;;;30.83;11.98;;;;;;;10.16;100.00;99948.16;5030425;28;20055;-71
2024/02/07 05:57:47;;;;;;;35.65;13.60;;;;;;;10.17;100.00;99938.69;5041305;28;20063;-71
2024/02/07 06:00:14;;;;;;;33.80;12.77;;;;;;;10.17;100.00;99939.53;5057604;28;20037;-71
2024/02/07 06:02:40;;;;;;;26.35;11.90;;;;;;;10.17;100.00;99945.09;5047071;28;20024;-71
2024/02/07 06:05:06;;;;;;;33.22;12.68;;;;;;;10.18;100.00;99937.56;5040819;28;20501;-71
2024/02/07 06:07:33;;;;;;;29.58;12.10;;;;;;;10.18;100.00;99929.25;5019850;28;20650;-71
2024/02/07 06:09:58;;;;;;;37.10;13.68;;;;;;;10.20;100.00;99927.00;5050919;28;20044;-71
2024/02/07 06:12:24;;;;;;;35.50;13.35;;;;;;;10.19;100.00;99936.44;5026319;28;20029;-71
2024/02/07 06:14:50;;;;;;;28.67;12.77;;;;;;;10.19;100.00;99928.09;5039605;28;20060;-71
2024/02/07 06:17:15;;;;;;;34.72;12.88;;;;;;;10.18;100.00;99930.06;5038661;28;20033;-71
2024/02/07 06:19:41;;;;;;;38.90;13.82;;;;;;;10.19;100.00;99928.94;5057640;28;20044;-71
2024/02/07 06:22:06;;;;;;;34.20;14.73;;;;;;;10.20;100.00;99922.25;5027059;28;20034;-71
2024/02/07 06:24:32;;;;;;;39.45;13.88;;;;;;;10.21;100.00;99914.75;5054808;28;20512;-71
2024/02/07 06:26:58;;;;;;;36.05;13.70;;;;;;;10.21;100.00;99917.53;5057302;28;20600;-71
2024/02/07 06:29:27;;;;;;;31.23;13.25;;;;;;;10.20;100.00;99910.34;5057076;28;20055;-71
2024/02/07 06:31:54;;;;;;;35.92;14.07;;;;;;;10.22;100.00;99905.28;5050551;28;20101;-71
2024/02/07 06:34:20;;;;;;;33.38;14.23;;;;;;;10.22;100.00;99906.16;5058885;28;20063;-71
2024/02/07 06:36:46;;;;;;;32.88;13.40;;;;;;;10.22;100.00;99902.53;5028341;28;20037;-71
2024/02/07 06:39:12;;;;;;;38.95;14.07;;;;;;;10.23;100.00;99898.63;5044038;28;20442;-71
2024/02/07 06:41:38;;;;;;;32.03;13.48;;;;;;;10.24;100.00;99901.09;5026401;28;20117;-71
2024/02/07 06:44:03;;;;;;;35.35;13.75;;;;;;;10.23;100.00;99904.19;5047051;28;20040;-71
2024/02/07 06:46:29;;;;;;;39.58;14.75;;;;;;;10.24;100.00;99894.72;5024768;28;20037;-71
2024/02/07 06:48:55;;;;;;;30.70;13.15;;;;;;;10.25;100.00;99897.19;5056969;28;20049;-71
2024/02/07 06:51:21;;;;;;;35.20;13.40;;;;;;;10.24;100.00;99890.00;5057093;28;20029;-71
2024/02/07 06:53:47;;;;;;;37.38;13.73;;;;;;;10.25;100.00;99880.53;5052689;28;20441;-71
2024/02/07 06:56:13;;;;;;;37.22;13.32;;;;;;;10.27;100.00;99888.59;5056980;28;20025;-71
2024/02/07 06:58:39;;;;;;;40.22;14.15;;;;;;;10.26;100.00;99882.19;5022525;28;20039;-71
2024/02/07 07:01:04;;;;;;;33.47;12.93;;;;;;;10.29;100.00;99850.25;5056822;28;20496;-71
2024/02/07 07:03:30;;;;;;;35.85;13.68;;;;;;;10.27;100.00;99860.84;5056752;28;20032;-71
2024/02/07 07:05:59;;;;;;;25.95;12.95;;;;;;;10.27;100.00;99860.84;5053059;28;20071;-71
2024/02/07 07:08:24;;;;;;;29.95;12.70;;;;;;;10.29;100.00;99866.91;5039369;28;20112;-71
2024/02/07 07:10:50;;;;;;;33.75;13.73;;;;;;;10.29;100.00;99861.34;5039952;28;20036;-71
2024/02/07 07:13:15;;;;;;;26.55;12.32;;;;;;;10.31;100.00;99859.09;5056294;28;20561;-71
2024/02/07 07:15:41;;;;;;;36.55;14.20;;;;;;;10.29;100.00;99850.25;5056965;28;20461;-71
2024/02/07 07:18:07;;;;;;;34.95;13.23;;;;;;;10.32;100.00;99841.31;5056544;28;20036;-71
2024/02/07 07:20:34;;;;;;;35.58;14.32;;;;;;;10.31;100.00;99836.03;5056521;28;20075;-71
2024/02/07 07:23:02;;;;;;;32.78;13.40;;;;;;;10.32;100.00;99838.53;5023082;28;20625;-71
2024/02/07 07:25:30;;;;;;;28.85;13.00;;;;;;;10.30;100.00;99838.00;5056451;28;20029;-71
2024/02/07 07:27:55;;;;;;;29.15;13.20;;;;;;;10.32;100.00;99824.66;5040269;28;20048;-71
2024/02/07 07:30:21;;;;;;;31.27;13.13;;;;;;;10.31;100.00;99822.16;5039292;28;20028;-71
2024/02/07 07:32:47;;;;;;;34.35;12.60;;;;;;;10.33;100.00;99815.19;5063822;28;20029;-71
2024/02/07 07:35:13;;;;;;;29.13;12.60;;;;;;;10.34;100.00;99811.28;5056098;28;20028;-71
2024/02/07 07:37:39;;;;;;;29.95;13.27;;;;;;;10.34;100.00;99822.41;5055916;28;20029;-71
2024/02/07 07:40:05;;;;;;;27.50;13.00;;;;;;;10.34;100.00;99805.75;5055983;28;20059;-71
2024/02/07 07:42:30;;;;;;;34.38;12.98;;;;;;;10.36;100.00;99806.22;5028245;28;20484;-71
2024/02/07 07:44:56;;;;;;;38.03;13.48;;;;;;;10.37;100.00;99810.66;5041577;28;20025;-71
2024/02/07 07:47:21;;;;;;;27.30;12.13;;;;;;;10.37;100.00;99799.56;5047030;28;20048;-71
2024/02/07 07:49:47;;;;;;;30.98;12.88;;;;;;;10.38;100.00;99809.53;5050011;28;20033;-71
2024/02/07 07:52:13;;;;;;;34.13;13.00;;;;;;;10.38;100.00;99795.66;5055359;28;20118;-71
2024/02/07 07:54:38;;;;;;;29.58;13.20;;;;;;;10.40;100.00;99798.94;5056923;28;20031;-71
2024/02/07 07:57:07;;;;;;;24.55;12.18;;;;;;;10.41;100.00;99789.47;5023688;28;20033;-71
2024/02/07 07:59:33;;;;;;;24.92;11.85;;;;;;;10.42;100.00;99793.91;5023132;28;20082;-71
2024/02/07 08:02:01;;;;;;;23.77;11.90;;;;;;;10.42;100.00;99785.59;5040260;28;20037;-71
2024/02/07 08:04:27;;;;;;;25.92;12.32;;;;;;;10.43;100.00;99792.78;5023409;28;20025;-71
2024/02/07 08:06:53;;;;;;;23.65;10.95;;;;;;;10.44;100.00;99791.63;5049951;28;20040;-71
2024/02/07 08:09:18;;;;;;;24.88;11.90;;;;;;;10.45;100.00;99784.97;5056482;28;20489;-71
2024/02/07 08:11:44;;;;;;;24.15;11.48;;;;;;;10.45;100.00;99782.19;5056455;28;20389;-71
2024/02/07 08:14:10;;;;;;;20.58;9.80;;;;;;;10.46;100.00;99775.50;5023234;28;20067;-71
2024/02/07 08:16:36;;;;;;;18.38;10.38;;;;;;;10.48;100.00;99781.56;5056512;28;20033;-71
2024/02/07 08:19:01;;;;;;;24.08;9.90;;;;;;;10.51;100.00;99782.91;5028496;28;20025;-71
2024/02/07 08:21:27;;;;;;;18.50;9.57;;;;;;;10.50;100.00;99765.41;5039705;28;20044;-71
2024/02/07 08:23:53;;;;;;;17.52;9.38;;;;;;;10.50;100.00;99765.41;5056129;28;20029;-71
2024/02/07 08:26:19;;;;;;;16.30;9.18;;;;;;;10.52;100.00;99763.13;5023265;28;20086;-71
2024/02/07 08:28:44;;;;;;;20.67;9.23;;;;;;;10.54;100.00;99762.03;5056030;28;20354;-71
2024/02/07 08:31:11;;;;;;;15.23;8.93;;;;;;;10.52;100.00;99757.59;5039099;28;20545;-71
2024/02/07 08:33:37;;;;;;;17.98;8.55;;;;;;;10.54;100.00;99757.28;5039662;28;20031;-71
2024/02/07 08:36:03;;;;;;;16.30;8.50;;;;;;;10.57;100.00;99750.28;5030112;28;20087;-71
2024/02/07 08:38:28;;;;;;;21.60;8.20;;;;;;;10.58;100.00;99763.03;5031376;28;20112;-71
2024/02/07 08:40:54;;;;;;;15.80;8.65;;;;;;;10.57;100.00;99755.84;5033339;28;20037;-71
2024/02/07 08:43:21;;;;;;;14.93;7.72;;;;;;;10.59;100.00;99753.59;5039338;28;20028;-71
2024/02/07 08:45:47;;;;;;;16.98;7.95;;;;;;;10.64;100.00;99747.88;5030434;28;20075;-71
2024/02/07 08:48:12;;;;;;;13.70;7.80;;;;;;;10.61;100.00;99743.78;5019775;28;20107;-71
2024/02/07 08:50:38;;;;;;;13.18;7.32;;;;;;;10.60;100.00;99746.88;5039299;28;20381;-71
2024/02/07 08:53:03;;;;;;;13.65;7.35;;;;;;;10.62;100.00;99744.63;5019018;28;20033;-71
2024/02/07 08:55:29;;;;;;;14.38;7.68;;;;;;;10.62;100.00;99748.22;5049421;28;20022;-71
2024/02/07 08:57:54;;;;;;;14.82;7.22;;;;;;;10.64;100.00;99750.66;5054168;28;20091;-71
2024/02/07 09:00:20;;;;;;;13.85;6.53;;;;;;;10.68;100.00;99740.59;5031213;28;20032;-71
2024/02/07 09:02:49;;;;;;;10.70;6.25;;;;;;;10.67;100.00;99741.69;5012772;28;20029;-71
2024/02/07 09:05:17;;;;;;;10.48;6.32;;;;;;;10.66;100.00;99734.50;5056905;28;20062;-71
2024/02/07 09:07:42;;;;;;;13.38;6.95;;;;;;;10.63;100.00;99735.97;5039037;28;20079;-71
2024/02/07 09:10:09;;;;;;;10.43;6.35;;;;;;;10.65;100.00;99739.25;5031948;28;20032;-71
2024/02/07 09:12:35;;;;;;;13.27;6.75;;;;;;;10.67;100.00;99731.44;5055748;28;20039;-71
2024/02/07 09:15:00;;;;;;;11.77;6.40;;;;;;;10.67;100.00;99730.59;5022195;28;20021;-71
2024/02/07 09:17:26;;;;;;;11.07;6.07;;;;;;;10.68;100.00;99724.75;5039197;28;20029;-71
2024/02/07 09:19:52;;;;;;;13.55;6.57;;;;;;;10.71;100.00;99723.28;5038886;28;20072;-71
2024/02/07 09:22:17;;;;;;;9.23;5.60;;;;;;;10.75;100.00;99718.75;5054941;28;20037;-71
2024/02/07 09:24:43;;;;;;;8.82;5.00;;;;;;;10.76;100.00;99725.94;5049165;28;20388;-71
2024/02/07 09:27:08;;;;;;;11.30;5.45;;;;;;;10.79;100.00;99716.16;5042177;28;20044;-71
2024/02/07 09:29:35;;;;;;;10.68;5.38;;;;;;;10.83;100.00;99708.84;5022050;28;20033;-71
2024/02/07 09:32:02;;;;;;;11.00;5.45;;;;;;;10.82;100.00;99709.97;5019107;28;20030;-71
2024/02/07 09:34:27;;;;;;;11.10;4.90;;;;;;;10.83;100.00;99709.66;5032081;28;20025;-71
2024/02/07 09:36:53;;;;;;;7.70;4.43;;;;;;;10.86;100.00;99709.03;5038186;28;20086;-71
2024/02/07 09:39:20;;;;;;;9.07;4.57;;;;;;;10.87;100.00;99705.13;5032565;28;20542;-71
2024/02/07 09:41:46;;;;;;;6.85;4.70;;;;;;;10.90;100.00;99698.13;5031622;28;20412;-71
2024/02/07 09:44:12;;;;;;;10.63;4.63;;;;;;;10.92;100.00;99707.78;5060554;28;20032;-71
2024/02/07 09:46:40;;;;;;;8.02;4.75;;;;;;;10.95;100.00;99698.00;5036006;28;20128;-71
2024/02/07 09:49:07;;;;;;;6.28;3.88;;;;;;;10.98;100.00;99707.63;5048265;28;20480;-71
2024/02/07 09:51:32;;;;;;;6.15;3.85;;;;;;;10.98;100.00;99696.50;5036311;28;20083;-71
2024/02/07 09:53:59;;;;;;;6.55;3.67;;;;;;;11.02;100.00;99697.53;5021592;28;20033;-71
2024/02/07 09:56:24;;;;;;;6.93;3.72;;;;;;;11.03;100.00;99693.63;5038937;28;20033;-71
2024/02/07 09:58:50;;;;;;;6.00;3.40;;;;;;;11.06;100.00;99687.41;5031391;28;20425;-71
2024/02/07 10:01:16;;;;;;;5.82;3.40;;;;;;;11.07;100.00;99689.88;5017475;28;20111;-71
2024/02/07 10:03:42;;;;;;;5.50;2.80;;;;;;;11.11;100.00;99690.06;5046869;28;20393;-71
2024/02/07 10:06:08;;;;;;;5.63;2.88;;;;;;;11.13;100.00;99685.84;5033228;28;20053;-71
2024/02/07 10:08:38;;;;;;;4.57;2.53;;;;;;;11.16;100.00;99685.19;5021733;28;20068;-71
2024/02/07 10:11:03;;;;;;;5.15;2.70;;;;;;;11.18;100.00;99680.16;5043282;28;20052;-71
2024/02/07 10:13:29;;;;;;;6.00;2.70;;;;;;;11.24;100.00;99685.56;5031142;28;20032;-71
2024/02/07 10:15:55;;;;;;;4.10;2.33;;;;;;;11.24;100.00;99671.69;5010768;28;20049;-71
2024/02/07 10:18:21;;;;;;;5.25;3.00;;;;;;;11.28;100.00;99669.88;5022885;28;20033;-71
2024/02/07 10:20:53;;;;;;;6.57;2.60;;;;;;;11.30;100.00;99667.63;5033783;28;20100;-71
2024/02/07 10:23:20;;;;;;;3.55;2.38;;;;;;;11.31;100.00;99664.53;5007601;28;20486;-71
2024/02/07 10:25:51;;;;;;;2.70;1.98;;;;;;;11.33;100.00;99661.41;5026256;28;20037;-71
2024/02/07 10:28:17;;;;;;;3.35;2.10;;;;;;;11.36;100.00;99667.16;5037780;28;20028;-71
2024/02/07 10:30:42;;;;;;;4.63;2.40;;;;;;;11.37;100.00;99665.22;5036212;28;20080;-71
2024/02/07 10:33:08;;;;;;;3.08;2.17;;;;;;;11.38;100.00;99662.09;5021720;28;20539;-71
2024/02/07 10:35:33;;;;;;;3.53;2.70;;;;;;;11.43;100.00;99658.38;5025249;28;20116;-71
2024/02/07 10:37:59;;;;;;;3.05;2.10;;;;;;;11.43;100.00;99660.34;5013720;28;20070;-71
2024/02/07 10:40:28;;;;;;;3.83;2.20;;;;;;;11.45;100.00;99653.31;5058251;28;20033;-71
2024/02/07 10:42:58;;;;;;;2.40;1.77;;;;;;;11.49;100.00;99645.16;5030710;28;20021;-71
2024/02/07 10:45:23;;;;;;;5.97;2.15;;;;;;;11.50;100.00;99646.78;5050123;28;20029;-71
2024/02/07 10:47:52;;;;;;;4.30;2.10;;;;;;;11.53;100.00;99652.53;5041481;28;20047;-71
2024/02/07 10:50:19;;;;;;;3.67;1.77;;;;;;;11.56;100.00;99646.31;5041790;28;20067;-71
2024/02/07 10:52:44;;;;;;;2.45;1.73;;;;;;;11.59;100.00;99639.31;5041329;28;20088;-71
2024/02/07 10:55:11;;;;;;;2.53;1.80;;;;;;;11.64;100.00;99630.78;5024845;28;20613;-71
2024/02/07 10:57:40;;;;;;;2.03;1.77;;;;;;;11.69;100.00;99641.75;5040816;28;20037;-71
2024/02/07 11:00:07;;;;;;;3.38;1.70;;;;;;;11.72;100.00;99643.09;5041502;28;20485;-71
2024/02/07 11:02:33;;;;;;;2.22;1.83;;;;;;;11.73;100.00;99645.56;5056153;28;20044;-71
2024/02/07 11:04:58;;;;;;;2.55;1.70;;;;;;;11.73;100.00;99639.16;5014624;28;20025;-71
2024/02/07 11:07:24;;;;;;;3.22;1.80;;;;;;;11.76;100.00;99644.09;5023232;28;20033;-71
2024/02/07 11:09:50;;;;;;;2.95;1.67;;;;;;;11.79;100.00;99633.13;5032547;28;20028;-71
2024/02/07 11:12:15;;;;;;;2.92;1.67;;;;;;;11.78;100.00;99634.28;5040991;28;20066;-71
2024/02/07 11:14:46;;;;;;;3.13;1.90;;;;;;;11.84;100.00;99627.41;5024443;28;20473;-71
2024/02/07 11:17:13;;;;;;;2.15;1.50;;;;;;;11.85;100.00;99643.00;5057467;28;20050;-71
2024/02/07 11:19:38;;;;;;;3.80;2.05;;;;;;;11.87;100.00;99633.50;5008075;28;20037;-71
2024/02/07 11:22:05;;;;;;;4.47;1.90;;;;;;;11.87;100.00;99627.94;5038392;28;20095;-71
2024/02/07 11:24:30;;;;;;;5.28;2.20;;;;;;;11.90;100.00;99627.31;5037381;28;20029;-71
2024/02/07 11:26:56;;;;;;;3.88;2.05;;;;;;;11.91;100.00;99624.19;5024203;28;20389;-71
2024/02/07 11:29:23;;;;;;;3.03;2.20;;;;;;;11.96;100.00;99629.59;5040575;28;20111;-71
2024/02/07 11:31:52;;;;;;;3.83;1.75;;;;;;;12.00;100.00;99630.56;5062120;28;20024;-71
2024/02/07 11:34:18;;;;;;;3.42;2.00;;;;;;;11.99;100.00;99625.34;5035154;28;20033;-71
2024/02/07 11:36:54;;;;;;;5.63;1.73;;;;;;;12.01;100.00;99623.88;5037514;28;20114;-71
2024/02/07 11:39:21;;;;;;;3.13;1.92;;;;;;;12.02;100.00;99616.34;5057318;28;20079;-71
2024/02/07 11:41:47;;;;;;;4.07;2.03;;;;;;;12.07;100.00;99616.19;5055752;28;20025;-71
2024/02/07 11:44:15;;;;;;;4.13;2.30;;;;;;;12.06;100.00;99615.38;5028285;28;20454;-71
2024/02/07 11:46:50;;;;;;;3.55;1.63;;;;;;;12.07;100.00;99610.63;5013874;28;20052;-71
2024/02/07 11:49:18;;;;;;;3.80;1.70;;;;;;;12.07;100.00;99605.88;5060234;28;20047;-71
2024/02/07 11:51:44;;;;;;;4.75;2.10;;;;;;;12.08;100.00;99599.16;5044212;28;20091;-71
2024/02/07 11:54:10;;;;;;;4.32;2.17;;;;;;;12.13;100.00;99597.38;5059687;28;20041;-71
2024/02/07 11:56:36;;;;;;;3.53;1.65;;;;;;;12.14;100.00;99597.03;5060541;28;20488;-71
2024/02/07 11:59:02;;;;;;;3.83;1.92;;;;;;;12.13;100.00;99584.28;5077301;28;20102;-71
2024/02/07 12:01:27;;;;;;;3.08;1.42;;;;;;;12.14;100.00;99583.13;5041477;28;20025;-71
2024/02/07 12:03:56;;;;;;;5.25;1.92;;;;;;;12.15;100.00;99573.63;5067964;28;20037;-71
2024/02/07 12:06:23;;;;;;;3.97;1.80;;;;;;;12.15;100.00;99567.25;5076724;28;20032;-71
2024/02/07 12:08:48;;;;;;;2.78;1.63;;;;;;;12.16;100.00;99577.22;5059787;28;20040;-71
2024/02/07 12:11:14;;;;;;;3.35;1.60;;;;;;;12.16;100.00;99566.09;5076508;28;20078;-71
2024/02/07 12:13:39;;;;;;;3.63;1.70;;;;;;;12.20;100.00;99565.13;5042747;28;20464;-71